createdAt,value
2023-02-12T19:27:28.090Z,-1.87
2023-02-12T19:29:57.798Z,-1.89
2023-02-12T19:32:26.685Z,-1.88
2023-02-12T19:34:55.785Z,-1.85
2023-02-12T19:37:24.785Z,-1.75
2023-02-12T19:39:53.779Z,-1.64
2023-02-12T19:42:22.798Z,-1.58
2023-02-12T19:44:51.655Z,-1.55
2023-02-12T19:47:21.087Z,-1.51
2023-02-12T19:49:49.923Z,-1.50
2023-02-12T19:52:18.852Z,-1.50
2023-02-12T19:54:48.145Z,-1.51
2023-02-12T19:57:17.019Z,-1.57
2023-02-12T19:59:46.688Z,-1.60
2023-02-12T20:02:15.482Z,-1.62
2023-02-12T20:04:44.214Z,-1.66
2023-02-12T20:07:13.205Z,-1.68
2023-02-12T20:09:42.007Z,-1.73
2023-02-12T20:12:10.863Z,-1.73
2023-02-12T20:14:39.652Z,-1.73
2023-02-12T20:17:08.440Z,-1.74
2023-02-12T20:19:37.335Z,-1.76
2023-02-12T20:22:06.178Z,-1.77
2023-02-12T20:24:35.347Z,-1.78
2023-02-12T20:27:04.762Z,-1.75
2023-02-12T20:29:33.595Z,-1.70
2023-02-12T20:32:02.505Z,-1.63
2023-02-12T20:34:36.677Z,-1.55
2023-02-12T20:37:11.753Z,-1.50
2023-02-12T20:39:40.482Z,-1.48
2023-02-12T20:42:09.251Z,-1.49
2023-02-12T20:44:38.483Z,-1.47
2023-02-12T20:47:07.237Z,-1.50
2023-02-12T20:49:36.158Z,-1.53
2023-02-12T20:52:05.358Z,-1.59
2023-02-12T20:54:34.121Z,-1.64
2023-02-12T20:57:06.850Z,-1.67
2023-02-12T20:59:35.863Z,-1.66
2023-02-12T21:02:04.933Z,-1.64
2023-02-12T21:04:34.373Z,-1.64
2023-02-12T21:07:03.271Z,-1.65
2023-02-12T21:09:32.144Z,-1.61
2023-02-12T21:12:00.851Z,-1.60
2023-02-12T21:14:29.682Z,-1.58
2023-02-12T21:16:58.433Z,-1.56
2023-02-12T21:19:27.559Z,-1.56
2023-02-12T21:21:56.330Z,-1.55
2023-02-12T21:24:26.273Z,-1.49
2023-02-12T21:26:55.907Z,-1.44
2023-02-12T21:29:27.727Z,-1.39
2023-02-12T21:31:56.645Z,-1.34
2023-02-12T21:34:25.591Z,-1.27
2023-02-12T21:36:56.384Z,-1.21
2023-02-12T21:39:28.637Z,-1.19
2023-02-12T21:42:02.618Z,-1.20
2023-02-12T21:44:35.554Z,-1.24
2023-02-12T21:47:05.510Z,-1.30
2023-02-12T21:49:34.426Z,-1.41
2023-02-12T21:52:06.882Z,-1.50
2023-02-12T21:54:35.767Z,-1.62
2023-02-12T21:57:04.528Z,-1.74
2023-02-12T21:59:33.347Z,-1.90
2023-02-12T22:02:02.257Z,-2.00
2023-02-12T22:04:31.036Z,-2.08
2023-02-12T22:07:03.468Z,-2.15
2023-02-12T22:09:32.536Z,-2.21
2023-02-12T22:12:01.265Z,-2.26
2023-02-12T22:14:30.217Z,-2.24
2023-02-12T22:16:59.560Z,-2.25
2023-02-12T22:19:28.327Z,-2.25
2023-02-12T22:21:57.052Z,-2.25
2023-02-12T22:24:25.776Z,-2.24
2023-02-12T22:26:55.378Z,-2.24
2023-02-12T22:29:24.280Z,-2.23
2023-02-12T22:31:53.093Z,-2.22
2023-02-12T22:34:21.869Z,-2.22
2023-02-12T22:36:50.637Z,-2.21
2023-02-12T22:39:19.444Z,-2.20
2023-02-12T22:41:48.324Z,-2.10
2023-02-12T22:44:18.926Z,-2.05
2023-02-12T22:46:50.517Z,-2.06
2023-02-12T22:49:19.504Z,-2.11
2023-02-12T22:51:48.300Z,-2.21
2023-02-12T22:54:19.175Z,-2.29
2023-02-12T22:56:52.236Z,-2.45
2023-02-12T22:59:21.017Z,-2.66
2023-02-12T23:01:49.838Z,-2.79
2023-02-12T23:04:19.420Z,-2.87
2023-02-12T23:06:48.533Z,-2.89
2023-02-12T23:09:19.325Z,-2.94
2023-02-12T23:11:48.889Z,-3.00
2023-02-12T23:14:18.334Z,-3.04
2023-02-12T23:16:47.700Z,-3.10
2023-02-12T23:19:16.727Z,-3.06
2023-02-12T23:21:45.502Z,-3.08
2023-02-12T23:24:15.257Z,-3.16
2023-02-12T23:26:44.998Z,-3.13
2023-02-12T23:29:14.358Z,-3.15
2023-02-12T23:31:43.288Z,-3.20
2023-02-12T23:34:12.131Z,-3.26
2023-02-12T23:36:40.907Z,-3.32
2023-02-12T23:39:12.771Z,-3.34
2023-02-12T23:41:41.482Z,-3.30
2023-02-12T23:44:10.752Z,-3.31
2023-02-12T23:46:39.516Z,-3.34
2023-02-12T23:49:08.557Z,-3.37
2023-02-12T23:51:37.320Z,-3.42
2023-02-12T23:54:06.182Z,-3.49
2023-02-12T23:56:34.868Z,-3.58
2023-02-12T23:59:03.660Z,-3.62
